sensor_id;sensor_type;location;lat;lon;timestamp;pressure;altitude;pressure_sealevel;temperature;humidity
29385;BME280;16367;48.736;9.218;2024-01-27T00:00:59;-23276.09;;;3.40;100.00
29385;BME280;16367;48.736;9.218;2024-01-27T00:03:01;-23281.84;;;3.58;100.00
29385;BME280;16367;48.736;9.218;2024-01-27T00:05:06;-23277.38;;;3.44;100.00
29385;BME280;16367;48.736;9.218;2024-01-27T00:07:09;-23281.19;;;3.56;100.00
29385;BME280;16367;48.736;9.218;2024-01-27T00:09:12;-23277.84;;;3.46;100.00
29385;BME280;16367;48.736;9.218;2024-01-27T00:11:15;-23274.19;;;3.34;100.00
29385;BME280;16367;48.736;9.218;2024-01-27T00:13:18;-23274.19;;;3.34;100.00
29385;BME280;16367;48.736;9.218;2024-01-27T00:15:20;-23271.81;;;3.27;100.00
29385;BME280;16367;48.736;9.218;2024-01-27T00:17:23;-23272.75;;;3.30;100.00
29385;BME280;16367;48.736;9.218;2024-01-27T00:19:26;-23273.56;;;3.32;100.00
29385;BME280;16367;48.736;9.218;2024-01-27T00:21:30;-23273.88;;;3.33;100.00
29385;BME280;16367;48.736;9.218;2024-01-27T00:23:33;-23276.59;;;3.42;100.00
29385;BME280;16367;48.736;9.218;2024-01-27T00:25:36;-23276.75;;;3.42;100.00
29385;BME280;16367;48.736;9.218;2024-01-27T00:27:38;-23275.47;;;3.38;100.00
29385;BME280;16367;48.736;9.218;2024-01-27T00:29:41;-23274.66;;;3.36;100.00
29385;BME280;16367;48.736;9.218;2024-01-27T00:31:44;-23267.19;;;3.12;100.00
29385;BME280;16367;48.736;9.218;2024-01-27T00:33:47;-23269.72;;;3.20;100.00
29385;BME280;16367;48.736;9.218;2024-01-27T00:35:50;-23263.66;;;3.01;100.00
29385;BME280;16367;48.736;9.218;2024-01-27T00:37:54;-23264.94;;;3.05;100.00
29385;BME280;16367;48.736;9.218;2024-01-27T00:39:56;-23264.94;;;3.05;100.00
29385;BME280;16367;48.736;9.218;2024-01-27T00:41:59;-23264.94;;;3.05;100.00
29385;BME280;16367;48.736;9.218;2024-01-27T00:44:02;-23261.44;;;2.94;100.00
29385;BME280;16367;48.736;9.218;2024-01-27T00:46:05;-23263.19;;;2.99;100.00
29385;BME280;16367;48.736;9.218;2024-01-27T00:48:07;-23262.41;;;2.97;100.00
29385;BME280;16367;48.736;9.218;2024-01-27T00:50:10;-23258.72;;;2.85;100.00
29385;BME280;16367;48.736;9.218;2024-01-27T00:52:13;-23258.56;;;2.85;100.00
29385;BME280;16367;48.736;9.218;2024-01-27T00:54:18;-23257.94;;;2.83;100.00
29385;BME280;16367;48.736;9.218;2024-01-27T00:56:20;-23258.25;;;2.84;100.00
29385;BME280;16367;48.736;9.218;2024-01-27T00:58:23;-23255.88;;;2.76;100.00
29385;BME280;16367;48.736;9.218;2024-01-27T01:00:25;-23255.69;;;2.76;100.00
29385;BME280;16367;48.736;9.218;2024-01-27T01:02:28;-23256.19;;;2.77;100.00
29385;BME280;16367;48.736;9.218;2024-01-27T01:04:31;-23252.81;;;2.67;100.00
29385;BME280;16367;48.736;9.218;2024-01-27T01:06:34;-23251.88;;;2.64;100.00
29385;BME280;16367;48.736;9.218;2024-01-27T01:08:36;-23252.19;;;2.65;100.00
29385;BME280;16367;48.736;9.218;2024-01-27T01:10:41;-23255.06;;;2.74;100.00
29385;BME280;16367;48.736;9.218;2024-01-27T01:12:43;-23253.00;;;2.67;100.00
29385;BME280;16367;48.736;9.218;2024-01-27T01:14:46;-23255.38;;;2.75;100.00
29385;BME280;16367;48.736;9.218;2024-01-27T01:16:49;-23254.91;;;2.73;100.00
29385;BME280;16367;48.736;9.218;2024-01-27T01:18:52;-23252.81;;;2.67;100.00
29385;BME280;16367;48.736;9.218;2024-01-27T01:20:55;-23252.81;;;2.67;100.00
29385;BME280;16367;48.736;9.218;2024-01-27T01:22:58;-23251.22;;;2.62;100.00
29385;BME280;16367;48.736;9.218;2024-01-27T01:25:00;-23253.94;;;2.70;100.00
29385;BME280;16367;48.736;9.218;2024-01-27T01:27:04;-23246.78;;;2.48;100.00
29385;BME280;16367;48.736;9.218;2024-01-27T01:29:07;-23248.69;;;2.54;100.00
29385;BME280;16367;48.736;9.218;2024-01-27T01:31:09;-23244.84;;;2.42;100.00
29385;BME280;16367;48.736;9.218;2024-01-27T01:33:11;-23246.59;;;2.47;100.00
29385;BME280;16367;48.736;9.218;2024-01-27T01:35:14;-23247.25;;;2.49;100.00
29385;BME280;16367;48.736;9.218;2024-01-27T01:37:16;-23246.94;;;2.48;100.00
29385;BME280;16367;48.736;9.218;2024-01-27T01:39:18;-23248.38;;;2.53;100.00
29385;BME280;16367;48.736;9.218;2024-01-27T01:41:21;-23248.22;;;2.52;100.00
29385;BME280;16367;48.736;9.218;2024-01-27T01:43:24;-23249.00;;;2.55;100.00
29385;BME280;16367;48.736;9.218;2024-01-27T01:45:27;-23248.69;;;2.54;100.00
29385;BME280;16367;48.736;9.218;2024-01-27T01:47:30;-23245.34;;;2.43;100.00
29385;BME280;16367;48.736;9.218;2024-01-27T01:49:33;-23247.09;;;2.49;100.00
29385;BME280;16367;48.736;9.218;2024-01-27T01:51:36;-23244.22;;;2.40;100.00
29385;BME280;16367;48.736;9.218;2024-01-27T01:53:39;-23244.53;;;2.41;100.00
29385;BME280;16367;48.736;9.218;2024-01-27T01:55:42;-23243.09;;;2.36;100.00
29385;BME280;16367;48.736;9.218;2024-01-27T01:57:45;-23242.94;;;2.36;100.00
29385;BME280;16367;48.736;9.218;2024-01-27T01:59:49;-23242.63;;;2.35;100.00
29385;BME280;16367;48.736;9.218;2024-01-27T02:01:52;-23244.22;;;2.40;100.00
29385;BME280;16367;48.736;9.218;2024-01-27T02:03:55;-23242.31;;;2.34;100.00
29385;BME280;16367;48.736;9.218;2024-01-27T02:05:58;-23241.34;;;2.31;100.00
29385;BME280;16367;48.736;9.218;2024-01-27T02:08:01;-23243.56;;;2.38;100.00
29385;BME280;16367;48.736;9.218;2024-01-27T02:10:12;-23240.06;;;2.26;100.00
29385;BME280;16367;48.736;9.218;2024-01-27T02:12:15;-23233.69;;;2.06;100.00
29385;BME280;16367;48.736;9.218;2024-01-27T02:14:18;-23234.16;;;2.08;100.00
29385;BME280;16367;48.736;9.218;2024-01-27T02:16:22;-23230.81;;;1.97;100.00
29385;BME280;16367;48.736;9.218;2024-01-27T02:18:25;-23232.72;;;2.03;100.00
29385;BME280;16367;48.736;9.218;2024-01-27T02:20:28;-23235.44;;;2.12;100.00
29385;BME280;16367;48.736;9.218;2024-01-27T02:22:30;-23232.41;;;2.02;100.00
29385;BME280;16367;48.736;9.218;2024-01-27T02:24:34;-23234.97;;;2.10;100.00
29385;BME280;16367;48.736;9.218;2024-01-27T02:26:37;-23233.03;;;2.04;100.00
29385;BME280;16367;48.736;9.218;2024-01-27T02:28:40;-23232.09;;;2.01;100.00
29385;BME280;16367;48.736;9.218;2024-01-27T02:30:42;-23228.91;;;1.91;100.00
29385;BME280;16367;48.736;9.218;2024-01-27T02:32:45;-23226.34;;;1.83;100.00
29385;BME280;16367;48.736;9.218;2024-01-27T02:34:47;-23225.38;;;1.80;100.00
29385;BME280;16367;48.736;9.218;2024-01-27T02:36:50;-23228.59;;;1.90;100.00
29385;BME280;16367;48.736;9.218;2024-01-27T02:38:52;-23229.06;;;1.92;100.00
29385;BME280;16367;48.736;9.218;2024-01-27T02:40:57;-23225.72;;;1.81;100.00
29385;BME280;16367;48.736;9.218;2024-01-27T02:42:59;-23230.50;;;1.96;100.00
29385;BME280;16367;48.736;9.218;2024-01-27T02:45:02;-23224.44;;;1.77;100.00
29385;BME280;16367;48.736;9.218;2024-01-27T02:47:04;-23229.53;;;1.93;100.00
29385;BME280;16367;48.736;9.218;2024-01-27T02:49:07;-23227.31;;;1.86;100.00
29385;BME280;16367;48.736;9.218;2024-01-27T02:51:10;-23225.72;;;1.81;100.00
29385;BME280;16367;48.736;9.218;2024-01-27T02:53:13;-23225.06;;;1.79;100.00
29385;BME280;16367;48.736;9.218;2024-01-27T02:55:16;-23223.16;;;1.73;100.00
29385;BME280;16367;48.736;9.218;2024-01-27T02:57:20;-23226.66;;;1.84;100.00
29385;BME280;16367;48.736;9.218;2024-01-27T02:59:23;-23226.34;;;1.83;100.00
29385;BME280;16367;48.736;9.218;2024-01-27T03:01:26;-23225.38;;;1.80;100.00
29385;BME280;16367;48.736;9.218;2024-01-27T03:03:28;-23221.25;;;1.67;100.00
29385;BME280;16367;48.736;9.218;2024-01-27T03:05:31;-23223.00;;;1.73;100.00
29385;BME280;16367;48.736;9.218;2024-01-27T03:07:34;-23223.47;;;1.74;100.00
29385;BME280;16367;48.736;9.218;2024-01-27T03:09:37;-23226.66;;;1.84;100.00
29385;BME280;16367;48.736;9.218;2024-01-27T03:11:39;-23223.78;;;1.75;100.00
29385;BME280;16367;48.736;9.218;2024-01-27T03:13:43;-23222.50;;;1.71;100.00
29385;BME280;16367;48.736;9.218;2024-01-27T03:15:47;-23223.00;;;1.73;100.00
29385;BME280;16367;48.736;9.218;2024-01-27T03:17:51;-23222.34;;;1.71;100.00
29385;BME280;16367;48.736;9.218;2024-01-27T03:19:54;-23224.44;;;1.77;100.00
29385;BME280;16367;48.736;9.218;2024-01-27T03:21:57;-23226.03;;;1.82;100.00
29385;BME280;16367;48.736;9.218;2024-01-27T03:23:58;-23224.91;;;1.79;100.00
29385;BME280;16367;48.736;9.218;2024-01-27T03:26:02;-23225.38;;;1.80;100.00
29385;BME280;16367;48.736;9.218;2024-01-27T03:28:05;-23225.22;;;1.80;100.00
29385;BME280;16367;48.736;9.218;2024-01-27T03:30:09;-23223.16;;;1.73;100.00
29385;BME280;16367;48.736;9.218;2024-01-27T03:32:12;-23224.75;;;1.78;100.00
29385;BME280;16367;48.736;9.218;2024-01-27T03:34:15;-23227.31;;;1.86;100.00
29385;BME280;16367;48.736;9.218;2024-01-27T03:36:19;-23219.66;;;1.62;100.00
29385;BME280;16367;48.736;9.218;2024-01-27T03:38:22;-23219.50;;;1.62;100.00
29385;BME280;16367;48.736;9.218;2024-01-27T03:40:24;-23223.47;;;1.74;100.00
29385;BME280;16367;48.736;9.218;2024-01-27T03:42:26;-23222.34;;;1.71;100.00
29385;BME280;16367;48.736;9.218;2024-01-27T03:44:29;-23220.13;;;1.64;100.00
29385;BME280;16367;48.736;9.218;2024-01-27T03:46:33;-23224.75;;;1.78;100.00
29385;BME280;16367;48.736;9.218;2024-01-27T03:48:36;-23219.31;;;1.61;100.00
29385;BME280;16367;48.736;9.218;2024-01-27T03:50:39;-23219.97;;;1.63;100.00
29385;BME280;16367;48.736;9.218;2024-01-27T03:52:42;-23219.00;;;1.60;100.00
29385;BME280;16367;48.736;9.218;2024-01-27T03:54:44;-23220.28;;;1.64;100.00
29385;BME280;16367;48.736;9.218;2024-01-27T03:56:46;-23219.81;;;1.63;100.00
29385;BME280;16367;48.736;9.218;2024-01-27T03:58:49;-23220.44;;;1.65;100.00
29385;BME280;16367;48.736;9.218;2024-01-27T04:00:52;-23219.00;;;1.60;100.00
29385;BME280;16367;48.736;9.218;2024-01-27T04:02:56;-23213.75;;;1.43;100.00
29385;BME280;16367;48.736;9.218;2024-01-27T04:04:59;-23213.91;;;1.44;100.00
29385;BME280;16367;48.736;9.218;2024-01-27T04:07:02;-23214.38;;;1.45;100.00
29385;BME280;16367;48.736;9.218;2024-01-27T04:09:05;-23217.41;;;1.55;100.00
29385;BME280;16367;48.736;9.218;2024-01-27T04:11:18;-23217.09;;;1.54;100.00
29385;BME280;16367;48.736;9.218;2024-01-27T04:13:21;-23213.91;;;1.44;100.00
29385;BME280;16367;48.736;9.218;2024-01-27T04:15:24;-23218.53;;;1.59;100.00
29385;BME280;16367;48.736;9.218;2024-01-27T04:17:27;-23213.56;;;1.43;100.00
29385;BME280;16367;48.736;9.218;2024-01-27T04:19:31;-23211.19;;;1.35;100.00
29385;BME280;16367;48.736;9.218;2024-01-27T04:21:34;-23212.31;;;1.39;100.00
29385;BME280;16367;48.736;9.218;2024-01-27T04:23:37;-23211.66;;;1.37;100.00
29385;BME280;16367;48.736;9.218;2024-01-27T04:25:39;-23212.00;;;1.38;100.00
29385;BME280;16367;48.736;9.218;2024-01-27T04:27:42;-23211.66;;;1.37;100.00
29385;BME280;16367;48.736;9.218;2024-01-27T04:29:45;-23212.63;;;1.40;100.00
29385;BME280;16367;48.736;9.218;2024-01-27T04:31:48;-23211.03;;;1.35;100.00
29385;BME280;16367;48.736;9.218;2024-01-27T04:33:51;-23209.44;;;1.30;100.00
29385;BME280;16367;48.736;9.218;2024-01-27T04:35:55;-23209.13;;;1.29;100.00
29385;BME280;16367;48.736;9.218;2024-01-27T04:37:57;-23205.91;;;1.19;100.00
29385;BME280;16367;48.736;9.218;2024-01-27T04:40:00;-23206.88;;;1.22;100.00
29385;BME280;16367;48.736;9.218;2024-01-27T04:42:03;-23207.19;;;1.23;100.00
29385;BME280;16367;48.736;9.218;2024-01-27T04:44:07;-23206.88;;;1.22;100.00
29385;BME280;16367;48.736;9.218;2024-01-27T04:46:10;-23205.28;;;1.17;100.00
29385;BME280;16367;48.736;9.218;2024-01-27T04:48:13;-23205.44;;;1.17;100.00
29385;BME280;16367;48.736;9.218;2024-01-27T04:50:16;-23205.75;;;1.18;100.00
29385;BME280;16367;48.736;9.218;2024-01-27T04:52:20;-23206.25;;;1.20;100.00
29385;BME280;16367;48.736;9.218;2024-01-27T04:54:23;-23207.19;;;1.23;100.00
29385;BME280;16367;48.736;9.218;2024-01-27T04:56:26;-23209.75;;;1.31;100.00
29385;BME280;16367;48.736;9.218;2024-01-27T04:58:29;-23211.03;;;1.35;100.00
29385;BME280;16367;48.736;9.218;2024-01-27T05:00:31;-23209.44;;;1.30;100.00
29385;BME280;16367;48.736;9.218;2024-01-27T05:02:34;-23209.13;;;1.29;100.00
29385;BME280;16367;48.736;9.218;2024-01-27T05:04:37;-23206.88;;;1.22;100.00
29385;BME280;16367;48.736;9.218;2024-01-27T05:06:43;-23206.25;;;1.20;100.00
29385;BME280;16367;48.736;9.218;2024-01-27T05:08:47;-23205.28;;;1.17;100.00
29385;BME280;16367;48.736;9.218;2024-01-27T05:10:50;-23206.25;;;1.20;100.00
29385;BME280;16367;48.736;9.218;2024-01-27T05:12:58;-23204.81;;;1.15;100.00
29385;BME280;16367;48.736;9.218;2024-01-27T05:15:01;-23186.13;;;0.56;100.00
29385;BME280;16367;48.736;9.218;2024-01-27T05:17:04;-23179.09;;;0.34;100.00
29385;BME280;16367;48.736;9.218;2024-01-27T05:19:07;-23177.16;;;0.28;100.00
29385;BME280;16367;48.736;9.218;2024-01-27T05:21:10;-23174.28;;;0.19;100.00
29385;BME280;16367;48.736;9.218;2024-01-27T05:23:11;-23175.88;;;0.24;100.00
29385;BME280;16367;48.736;9.218;2024-01-27T05:25:16;-23178.75;;;0.33;100.00
29385;BME280;16367;48.736;9.218;2024-01-27T05:27:19;-23181.00;;;0.40;100.00
29385;BME280;16367;48.736;9.218;2024-01-27T05:29:21;-23182.59;;;0.45;100.00
29385;BME280;16367;48.736;9.218;2024-01-27T05:31:25;-23179.72;;;0.36;100.00
29385;BME280;16367;48.736;9.218;2024-01-27T05:33:28;-23182.44;;;0.45;100.00
29385;BME280;16367;48.736;9.218;2024-01-27T05:35:31;-23182.75;;;0.46;100.00
29385;BME280;16367;48.736;9.218;2024-01-27T05:37:33;-23185.47;;;0.54;100.00
29385;BME280;16367;48.736;9.218;2024-01-27T05:39:36;-23183.56;;;0.48;100.00
29385;BME280;16367;48.736;9.218;2024-01-27T05:41:40;-23184.53;;;0.51;100.00
29385;BME280;16367;48.736;9.218;2024-01-27T05:43:43;-23186.44;;;0.57;100.00
29385;BME280;16367;48.736;9.218;2024-01-27T05:45:45;-23184.03;;;0.50;100.00
29385;BME280;16367;48.736;9.218;2024-01-27T05:47:48;-23181.66;;;0.42;100.00
29385;BME280;16367;48.736;9.218;2024-01-27T05:49:52;-23184.53;;;0.51;100.00
29385;BME280;16367;48.736;9.218;2024-01-27T05:51:55;-23185.31;;;0.54;100.00
29385;BME280;16367;48.736;9.218;2024-01-27T05:53:57;-23185.47;;;0.54;100.00
29385;BME280;16367;48.736;9.218;2024-01-27T05:56:00;-23185.97;;;0.56;100.00
29385;BME280;16367;48.736;9.218;2024-01-27T05:58:04;-23186.91;;;0.59;100.00
29385;BME280;16367;48.736;9.218;2024-01-27T06:00:08;-23187.88;;;0.62;100.00
29385;BME280;16367;48.736;9.218;2024-01-27T06:02:11;-23187.56;;;0.61;100.00
29385;BME280;16367;48.736;9.218;2024-01-27T06:04:14;-23190.59;;;0.70;100.00
29385;BME280;16367;48.736;9.218;2024-01-27T06:06:17;-23186.44;;;0.57;100.00
29385;BME280;16367;48.736;9.218;2024-01-27T06:08:20;-23185.78;;;0.55;100.00
29385;BME280;16367;48.736;9.218;2024-01-27T06:10:23;-23187.22;;;0.60;100.00
29385;BME280;16367;48.736;9.218;2024-01-27T06:12:26;-23188.03;;;0.62;100.00
29385;BME280;16367;48.736;9.218;2024-01-27T06:14:30;-23188.03;;;0.62;100.00
29385;BME280;16367;48.736;9.218;2024-01-27T06:16:33;-23187.88;;;0.62;100.00
29385;BME280;16367;48.736;9.218;2024-01-27T06:18:37;-23188.03;;;0.62;100.00
29385;BME280;16367;48.736;9.218;2024-01-27T06:20:40;-23191.72;;;0.74;100.00
29385;BME280;16367;48.736;9.218;2024-01-27T06:22:43;-23192.66;;;0.77;100.00
29385;BME280;16367;48.736;9.218;2024-01-27T06:24:45;-23189.94;;;0.68;100.00
29385;BME280;16367;48.736;9.218;2024-01-27T06:26:48;-23194.75;;;0.84;100.00
29385;BME280;16367;48.736;9.218;2024-01-27T06:28:50;-23190.09;;;0.69;100.00
29385;BME280;16367;48.736;9.218;2024-01-27T06:30:54;-23187.72;;;0.61;100.00
29385;BME280;16367;48.736;9.218;2024-01-27T06:32:57;-23181.47;;;0.42;100.00
29385;BME280;16367;48.736;9.218;2024-01-27T06:35:00;-23179.88;;;0.37;100.00
29385;BME280;16367;48.736;9.218;2024-01-27T06:37:03;-23177.50;;;0.29;100.00
29385;BME280;16367;48.736;9.218;2024-01-27T06:39:06;-23181.00;;;0.40;100.00
29385;BME280;16367;48.736;9.218;2024-01-27T06:41:10;-23180.38;;;0.38;100.00
29385;BME280;16367;48.736;9.218;2024-01-27T06:43:12;-23177.81;;;0.30;100.00
29385;BME280;16367;48.736;9.218;2024-01-27T06:45:16;-23179.09;;;0.34;100.00
29385;BME280;16367;48.736;9.218;2024-01-27T06:47:19;-23181.16;;;0.41;100.00
29385;BME280;16367;48.736;9.218;2024-01-27T06:49:21;-23181.31;;;0.41;100.00
29385;BME280;16367;48.736;9.218;2024-01-27T06:51:24;-23184.53;;;0.51;100.00
29385;BME280;16367;48.736;9.218;2024-01-27T06:53:29;-23185.97;;;0.56;100.00
29385;BME280;16367;48.736;9.218;2024-01-27T06:55:32;-23185.47;;;0.54;100.00
29385;BME280;16367;48.736;9.218;2024-01-27T06:57:34;-23184.19;;;0.50;100.00
29385;BME280;16367;48.736;9.218;2024-01-27T06:59:37;-23184.19;;;0.50;100.00
29385;BME280;16367;48.736;9.218;2024-01-27T07:01:39;-23182.91;;;0.46;100.00
29385;BME280;16367;48.736;9.218;2024-01-27T07:03:49;-23185.47;;;0.54;100.00
29385;BME280;16367;48.736;9.218;2024-01-27T07:05:51;-23184.53;;;0.51;100.00
29385;BME280;16367;48.736;9.218;2024-01-27T07:07:54;-23181.16;;;0.41;100.00
29385;BME280;16367;48.736;9.218;2024-01-27T07:09:57;-23179.25;;;0.35;100.00
29385;BME280;16367;48.736;9.218;2024-01-27T07:12:00;-23181.47;;;0.42;100.00
29385;BME280;16367;48.736;9.218;2024-01-27T07:14:04;-23184.19;;;0.50;100.00
29385;BME280;16367;48.736;9.218;2024-01-27T07:16:06;-23190.44;;;0.70;100.00
29385;BME280;16367;48.736;9.218;2024-01-27T07:18:08;-23185.16;;;0.53;100.00
29385;BME280;16367;48.736;9.218;2024-01-27T07:20:14;-23187.41;;;0.60;100.00
29385;BME280;16367;48.736;9.218;2024-01-27T07:22:17;-23189.00;;;0.65;100.00
29385;BME280;16367;48.736;9.218;2024-01-27T07:24:19;-23191.72;;;0.74;100.00
29385;BME280;16367;48.736;9.218;2024-01-27T07:26:22;-23196.03;;;0.88;100.00
29385;BME280;16367;48.736;9.218;2024-01-27T07:28:25;-23196.50;;;0.89;100.00
29385;BME280;16367;48.736;9.218;2024-01-27T07:30:28;-23196.50;;;0.89;100.00
29385;BME280;16367;48.736;9.218;2024-01-27T07:32:31;-23199.22;;;0.98;100.00
29385;BME280;16367;48.736;9.218;2024-01-27T07:34:34;-23201.13;;;1.04;100.00
29385;BME280;16367;48.736;9.218;2024-01-27T07:36:38;-23200.81;;;1.03;100.00
29385;BME280;16367;48.736;9.218;2024-01-27T07:38:40;-23201.13;;;1.04;100.00
29385;BME280;16367;48.736;9.218;2024-01-27T07:40:43;-23204.00;;;1.13;100.00
29385;BME280;16367;48.736;9.218;2024-01-27T07:42:46;-23206.25;;;1.20;100.00
29385;BME280;16367;48.736;9.218;2024-01-27T07:44:48;-23210.69;;;1.34;100.00
29385;BME280;16367;48.736;9.218;2024-01-27T07:46:51;-23214.84;;;1.47;100.00
29385;BME280;16367;48.736;9.218;2024-01-27T07:48:54;-23216.44;;;1.52;100.00
29385;BME280;16367;48.736;9.218;2024-01-27T07:50:57;-23218.38;;;1.58;100.00
29385;BME280;16367;48.736;9.218;2024-01-27T07:53:02;-23221.88;;;1.69;100.00
29385;BME280;16367;48.736;9.218;2024-01-27T07:55:05;-23222.19;;;1.70;100.00
29385;BME280;16367;48.736;9.218;2024-01-27T07:57:07;-23227.00;;;1.85;100.00
29385;BME280;16367;48.736;9.218;2024-01-27T07:59:10;-23229.22;;;1.92;100.00
29385;BME280;16367;48.736;9.218;2024-01-27T08:01:16;-23240.56;;;2.28;100.00
29385;BME280;16367;48.736;9.218;2024-01-27T08:03:18;-23253.78;;;2.70;100.00
29385;BME280;16367;48.736;9.218;2024-01-27T08:05:21;-23268.28;;;3.16;100.00
29385;BME280;16367;48.736;9.218;2024-01-27T08:07:23;-23258.72;;;2.85;100.00
29385;BME280;16367;48.736;9.218;2024-01-27T08:09:28;-23270.53;;;3.23;100.00
29385;BME280;16367;48.736;9.218;2024-01-27T08:11:29;-23272.91;;;3.30;100.00
29385;BME280;16367;48.736;9.218;2024-01-27T08:13:35;-23253.47;;;2.69;100.00
29385;BME280;16367;48.736;9.218;2024-01-27T08:15:38;-23267.34;;;3.13;100.00
29385;BME280;16367;48.736;9.218;2024-01-27T08:17:41;-23270.69;;;3.23;100.00
29385;BME280;16367;48.736;9.218;2024-01-27T08:19:44;-23273.88;;;3.33;100.00
29385;BME280;16367;48.736;9.218;2024-01-27T08:21:46;-23269.41;;;3.19;100.00
29385;BME280;16367;48.736;9.218;2024-01-27T08:23:49;-23275.31;;;3.38;100.00
29385;BME280;16367;48.736;9.218;2024-01-27T08:25:53;-23293.00;;;3.94;100.00
29385;BME280;16367;48.736;9.218;2024-01-27T08:27:55;-23287.25;;;3.75;99.43
29385;BME280;16367;48.736;9.218;2024-01-27T08:29:58;-23327.22;;;5.02;98.05
29385;BME280;16367;48.736;9.218;2024-01-27T08:32:01;-23322.31;;;4.86;94.28
29385;BME280;16367;48.736;9.218;2024-01-27T08:34:04;-23312.75;;;4.56;94.13
29385;BME280;16367;48.736;9.218;2024-01-27T08:36:07;-23305.59;;;4.33;94.42
29385;BME280;16367;48.736;9.218;2024-01-27T08:38:10;-23311.47;;;4.52;94.00
29385;BME280;16367;48.736;9.218;2024-01-27T08:40:14;-23320.06;;;4.79;91.30
29385;BME280;16367;48.736;9.218;2024-01-27T08:42:20;-23315.59;;;4.65;93.34
29385;BME280;16367;48.736;9.218;2024-01-27T08:44:21;-23336.31;;;5.31;89.34
29385;BME280;16367;48.736;9.218;2024-01-27T08:46:24;-23359.22;;;6.03;86.31
29385;BME280;16367;48.736;9.218;2024-01-27T08:48:26;-23371.63;;;6.42;84.58
29385;BME280;16367;48.736;9.218;2024-01-27T08:50:29;-23369.56;;;6.36;83.62
29385;BME280;16367;48.736;9.218;2024-01-27T08:52:32;-23361.44;;;6.10;83.29
29385;BME280;16367;48.736;9.218;2024-01-27T08:54:39;-23392.59;;;7.09;81.52
29385;BME280;16367;48.736;9.218;2024-01-27T08:56:42;-23392.13;;;7.07;81.41
29385;BME280;16367;48.736;9.218;2024-01-27T08:58:46;-23413.56;;;7.75;80.75
29385;BME280;16367;48.736;9.218;2024-01-27T09:00:50;-23422.63;;;8.04;79.85
29385;BME280;16367;48.736;9.218;2024-01-27T09:02:53;-23435.34;;;8.44;75.30
29385;BME280;16367;48.736;9.218;2024-01-27T09:04:55;-23427.72;;;8.20;73.47
29385;BME280;16367;48.736;9.218;2024-01-27T09:06:58;-23394.19;;;7.14;75.89
29385;BME280;16367;48.736;9.218;2024-01-27T09:09:00;-23432.16;;;8.34;75.81
29385;BME280;16367;48.736;9.218;2024-01-27T09:11:04;-23432.31;;;8.35;72.29
29385;BME280;16367;48.736;9.218;2024-01-27T09:13:07;-23462.78;;;9.31;69.10
29385;BME280;16367;48.736;9.218;2024-01-27T09:15:11;-23469.13;;;9.51;66.14
29385;BME280;16367;48.736;9.218;2024-01-27T09:17:14;-23430.88;;;8.30;68.80
29385;BME280;16367;48.736;9.218;2024-01-27T09:19:17;-23428.19;;;8.21;68.54
29385;BME280;16367;48.736;9.218;2024-01-27T09:21:20;-23453.41;;;9.01;68.60
29385;BME280;16367;48.736;9.218;2024-01-27T09:23:29;-23476.41;;;9.74;66.05
29385;BME280;16367;48.736;9.218;2024-01-27T09:25:32;-23459.91;;;9.22;69.96
29385;BME280;16367;48.736;9.218;2024-01-27T09:27:35;-23479.91;;;9.86;65.72
29385;BME280;16367;48.736;9.218;2024-01-27T09:29:37;-23457.06;;;9.13;66.34
29385;BME280;16367;48.736;9.218;2024-01-27T09:31:41;-23431.03;;;8.31;70.14
29385;BME280;16367;48.736;9.218;2024-01-27T09:33:44;-23447.38;;;8.82;70.87
29385;BME280;16367;48.736;9.218;2024-01-27T09:35:48;-23439.94;;;8.59;68.38
29385;BME280;16367;48.736;9.218;2024-01-27T09:37:51;-23460.41;;;9.24;68.82
29385;BME280;16367;48.736;9.218;2024-01-27T09:39:54;-23421.34;;;8.00;69.41
29385;BME280;16367;48.736;9.218;2024-01-27T09:41:58;-23420.72;;;7.98;70.87
29385;BME280;16367;48.736;9.218;2024-01-27T09:44:05;-23384.97;;;6.85;76.04
29385;BME280;16367;48.736;9.218;2024-01-27T09:46:08;-23392.91;;;7.10;75.83
29385;BME280;16367;48.736;9.218;2024-01-27T09:48:12;-23386.56;;;6.90;78.24
29385;BME280;16367;48.736;9.218;2024-01-27T09:50:17;-23400.06;;;7.32;77.23
29385;BME280;16367;48.736;9.218;2024-01-27T09:52:19;-23403.25;;;7.42;77.70
29385;BME280;16367;48.736;9.218;2024-01-27T09:54:22;-23411.34;;;7.68;76.32
29385;BME280;16367;48.736;9.218;2024-01-27T09:56:25;-23394.50;;;7.15;76.76
29385;BME280;16367;48.736;9.218;2024-01-27T09:58:29;-23398.31;;;7.27;77.46
29385;BME280;16367;48.736;9.218;2024-01-27T10:00:33;-23399.91;;;7.32;76.99
29385;BME280;16367;48.736;9.218;2024-01-27T10:02:38;-23392.91;;;7.10;77.17
29385;BME280;16367;48.736;9.218;2024-01-27T10:04:43;-23410.88;;;7.67;76.56
29385;BME280;16367;48.736;9.218;2024-01-27T10:06:50;-23407.84;;;7.57;76.76
29385;BME280;16367;48.736;9.218;2024-01-27T10:08:54;-23350.16;;;5.74;81.78
29385;BME280;16367;48.736;9.218;2024-01-27T10:10:57;-23343.47;;;5.53;83.18
29385;BME280;16367;48.736;9.218;2024-01-27T10:13:03;-23330.41;;;5.12;87.87
29385;BME280;16367;48.736;9.218;2024-01-27T10:15:06;-23336.94;;;5.33;88.78
29385;BME280;16367;48.736;9.218;2024-01-27T10:17:10;-23340.13;;;5.43;87.96
29385;BME280;16367;48.736;9.218;2024-01-27T10:19:14;-23327.38;;;5.02;88.84
29385;BME280;16367;48.736;9.218;2024-01-27T10:21:20;-23334.41;;;5.24;89.60
29385;BME280;16367;48.736;9.218;2024-01-27T10:23:25;-23323.91;;;4.91;89.46
29385;BME280;16367;48.736;9.218;2024-01-27T10:25:28;-23321.19;;;4.83;91.76
29385;BME280;16367;48.736;9.218;2024-01-27T10:27:30;-23320.06;;;4.79;92.17
29385;BME280;16367;48.736;9.218;2024-01-27T10:29:33;-23324.53;;;4.93;92.17
29385;BME280;16367;48.736;9.218;2024-01-27T10:31:36;-23336.63;;;5.32;92.78
29385;BME280;16367;48.736;9.218;2024-01-27T10:33:39;-23343.00;;;5.52;90.88
29385;BME280;16367;48.736;9.218;2024-01-27T10:35:43;-23349.50;;;5.72;90.55
29385;BME280;16367;48.736;9.218;2024-01-27T10:37:51;-23343.63;;;5.54;89.58
29385;BME280;16367;48.736;9.218;2024-01-27T10:40:00;-23335.81;;;5.29;88.04
29385;BME280;16367;48.736;9.218;2024-01-27T10:42:04;-23343.63;;;5.54;88.10
29385;BME280;16367;48.736;9.218;2024-01-27T10:44:10;-23318.63;;;4.75;88.06
29385;BME280;16367;48.736;9.218;2024-01-27T10:46:19;-23328.97;;;5.07;89.14